sensor_id;sensor_type;location;lat;lon;timestamp;P1;durP1;ratioP1;P2;durP2;ratioP2
11642;SDS011;5877;50.930;6.918;2022-10-30T00:00:43;10.57;;;5.03;;
11642;SDS011;5877;50.930;6.918;2022-10-30T00:03:11;12.50;;;5.43;;
11642;SDS011;5877;50.930;6.918;2022-10-30T00:05:42;11.77;;;5.23;;
11642;SDS011;5877;50.930;6.918;2022-10-30T00:08:11;10.43;;;5.00;;
11642;SDS011;5877;50.930;6.918;2022-10-30T00:10:39;7.00;;;4.80;;
11642;SDS011;5877;50.930;6.918;2022-10-30T00:13:05;14.13;;;5.30;;
11642;SDS011;5877;50.930;6.918;2022-10-30T00:15:32;9.87;;;5.83;;
11642;SDS011;5877;50.930;6.918;2022-10-30T00:17:59;9.40;;;4.83;;
11642;SDS011;5877;50.930;6.918;2022-10-30T00:20:26;10.33;;;5.00;;
11642;SDS011;5877;50.930;6.918;2022-10-30T00:22:53;9.87;;;4.63;;
11642;SDS011;5877;50.930;6.918;2022-10-30T00:25:20;9.50;;;4.90;;
11642;SDS011;5877;50.930;6.918;2022-10-30T00:27:46;7.40;;;5.23;;
11642;SDS011;5877;50.930;6.918;2022-10-30T00:30:13;13.03;;;4.90;;
11642;SDS011;5877;50.930;6.918;2022-10-30T00:32:41;11.60;;;5.23;;
11642;SDS011;5877;50.930;6.918;2022-10-30T00:35:09;9.27;;;4.77;;
11642;SDS011;5877;50.930;6.918;2022-10-30T00:37:37;11.20;;;5.40;;
11642;SDS011;5877;50.930;6.918;2022-10-30T00:40:04;9.33;;;5.20;;
11642;SDS011;5877;50.930;6.918;2022-10-30T00:42:32;10.00;;;5.23;;
11642;SDS011;5877;50.930;6.918;2022-10-30T00:44:58;13.57;;;5.50;;
11642;SDS011;5877;50.930;6.918;2022-10-30T00:47:27;12.03;;;4.70;;
11642;SDS011;5877;50.930;6.918;2022-10-30T00:50:08;13.23;;;5.37;;
11642;SDS011;5877;50.930;6.918;2022-10-30T00:55:31;8.93;;;4.47;;
11642;SDS011;5877;50.930;6.918;2022-10-30T00:58:05;11.50;;;5.60;;
11642;SDS011;5877;50.930;6.918;2022-10-30T01:00:36;11.83;;;5.23;;
11642;SDS011;5877;50.930;6.918;2022-10-30T01:03:06;13.40;;;5.43;;
11642;SDS011;5877;50.930;6.918;2022-10-30T01:05:33;10.07;;;5.10;;
11642;SDS011;5877;50.930;6.918;2022-10-30T01:08:02;10.93;;;5.43;;
11642;SDS011;5877;50.930;6.918;2022-10-30T01:10:28;10.17;;;5.13;;
11642;SDS011;5877;50.930;6.918;2022-10-30T01:12:55;12.17;;;5.70;;
11642;SDS011;5877;50.930;6.918;2022-10-30T01:15:29;12.40;;;5.60;;
11642;SDS011;5877;50.930;6.918;2022-10-30T01:27:58;13.87;;;5.63;;
11642;SDS011;5877;50.930;6.918;2022-10-30T01:38:49;15.27;;;5.27;;
11642;SDS011;5877;50.930;6.918;2022-10-30T01:41:22;10.83;;;5.60;;
11642;SDS011;5877;50.930;6.918;2022-10-30T01:43:49;11.93;;;5.83;;
11642;SDS011;5877;50.930;6.918;2022-10-30T01:46:36;15.03;;;5.20;;
11642;SDS011;5877;50.930;6.918;2022-10-30T01:54:36;9.30;;;5.20;;
11642;SDS011;5877;50.930;6.918;2022-10-30T02:00:11;8.27;;;5.40;;
11642;SDS011;5877;50.930;6.918;2022-10-30T02:02:44;14.50;;;5.23;;
11642;SDS011;5877;50.930;6.918;2022-10-30T02:05:16;9.57;;;5.37;;
11642;SDS011;5877;50.930;6.918;2022-10-30T02:07:53;12.70;;;5.83;;
11642;SDS011;5877;50.930;6.918;2022-10-30T02:10:21;13.60;;;5.60;;
11642;SDS011;5877;50.930;6.918;2022-10-30T02:12:48;10.97;;;5.30;;
11642;SDS011;5877;50.930;6.918;2022-10-30T02:15:15;15.83;;;5.37;;
11642;SDS011;5877;50.930;6.918;2022-10-30T02:17:42;9.07;;;5.27;;
11642;SDS011;5877;50.930;6.918;2022-10-30T02:20:14;13.50;;;5.43;;
11642;SDS011;5877;50.930;6.918;2022-10-30T02:22:51;9.47;;;5.77;;
11642;SDS011;5877;50.930;6.918;2022-10-30T02:25:28;11.40;;;5.17;;
11642;SDS011;5877;50.930;6.918;2022-10-30T02:27:55;10.60;;;5.40;;
11642;SDS011;5877;50.930;6.918;2022-10-30T02:30:21;16.10;;;6.30;;
11642;SDS011;5877;50.930;6.918;2022-10-30T02:32:48;9.10;;;5.57;;
11642;SDS011;5877;50.930;6.918;2022-10-30T02:35:15;11.90;;;6.10;;
11642;SDS011;5877;50.930;6.918;2022-10-30T02:37:43;11.97;;;5.17;;
11642;SDS011;5877;50.930;6.918;2022-10-30T02:40:12;9.13;;;5.10;;
11642;SDS011;5877;50.930;6.918;2022-10-30T02:42:39;11.47;;;5.50;;
11642;SDS011;5877;50.930;6.918;2022-10-30T02:45:06;12.67;;;5.97;;
11642;SDS011;5877;50.930;6.918;2022-10-30T02:47:33;9.10;;;5.90;;
11642;SDS011;5877;50.930;6.918;2022-10-30T02:49:59;10.23;;;5.60;;
11642;SDS011;5877;50.930;6.918;2022-10-30T02:52:26;14.40;;;6.40;;
11642;SDS011;5877;50.930;6.918;2022-10-30T02:54:53;12.30;;;5.80;;
11642;SDS011;5877;50.930;6.918;2022-10-30T02:57:19;9.57;;;5.70;;
11642;SDS011;5877;50.930;6.918;2022-10-30T02:59:46;11.13;;;5.47;;
11642;SDS011;5877;50.930;6.918;2022-10-30T03:02:13;11.60;;;5.60;;
11642;SDS011;5877;50.930;6.918;2022-10-30T03:04:40;13.87;;;5.67;;
11642;SDS011;5877;50.930;6.918;2022-10-30T03:07:09;12.47;;;5.57;;
11642;SDS011;5877;50.930;6.918;2022-10-30T03:09:36;10.87;;;5.73;;
11642;SDS011;5877;50.930;6.918;2022-10-30T03:12:02;9.10;;;5.87;;
11642;SDS011;5877;50.930;6.918;2022-10-30T03:14:29;14.60;;;5.77;;
11642;SDS011;5877;50.930;6.918;2022-10-30T03:16:56;11.10;;;6.37;;
11642;SDS011;5877;50.930;6.918;2022-10-30T03:19:22;17.97;;;6.20;;
11642;SDS011;5877;50.930;6.918;2022-10-30T03:21:51;13.20;;;5.97;;
11642;SDS011;5877;50.930;6.918;2022-10-30T03:24:19;10.67;;;5.73;;
11642;SDS011;5877;50.930;6.918;2022-10-30T03:26:46;12.90;;;6.13;;
11642;SDS011;5877;50.930;6.918;2022-10-30T03:29:13;11.57;;;6.37;;
11642;SDS011;5877;50.930;6.918;2022-10-30T03:31:39;13.50;;;6.20;;
11642;SDS011;5877;50.930;6.918;2022-10-30T03:34:17;11.10;;;5.60;;
11642;SDS011;5877;50.930;6.918;2022-10-30T03:36:43;8.83;;;5.37;;
11642;SDS011;5877;50.930;6.918;2022-10-30T03:39:11;12.07;;;6.23;;
11642;SDS011;5877;50.930;6.918;2022-10-30T03:41:41;13.93;;;5.93;;
11642;SDS011;5877;50.930;6.918;2022-10-30T03:44:08;11.40;;;5.83;;
11642;SDS011;5877;50.930;6.918;2022-10-30T03:46:35;10.00;;;5.87;;
11642;SDS011;5877;50.930;6.918;2022-10-30T03:49:18;12.30;;;5.53;;
11642;SDS011;5877;50.930;6.918;2022-10-30T03:51:44;10.63;;;5.93;;
11642;SDS011;5877;50.930;6.918;2022-10-30T03:54:11;12.87;;;6.23;;
11642;SDS011;5877;50.930;6.918;2022-10-30T03:56:37;8.13;;;5.17;;
11642;SDS011;5877;50.930;6.918;2022-10-30T03:59:06;11.40;;;6.13;;
11642;SDS011;5877;50.930;6.918;2022-10-30T04:01:36;14.43;;;6.10;;
11642;SDS011;5877;50.930;6.918;2022-10-30T04:04:04;11.17;;;6.47;;
11642;SDS011;5877;50.930;6.918;2022-10-30T04:06:31;9.20;;;5.77;;
11642;SDS011;5877;50.930;6.918;2022-10-30T04:08:57;8.37;;;5.90;;
11642;SDS011;5877;50.930;6.918;2022-10-30T04:11:24;12.90;;;6.80;;
11642;SDS011;5877;50.930;6.918;2022-10-30T04:13:51;11.40;;;6.20;;
11642;SDS011;5877;50.930;6.918;2022-10-30T04:16:17;13.67;;;6.37;;
11642;SDS011;5877;50.930;6.918;2022-10-30T04:18:44;13.30;;;6.07;;
11642;SDS011;5877;50.930;6.918;2022-10-30T04:21:11;11.80;;;6.53;;
11642;SDS011;5877;50.930;6.918;2022-10-30T04:23:38;9.37;;;5.93;;
11642;SDS011;5877;50.930;6.918;2022-10-30T04:26:04;13.37;;;6.70;;
11642;SDS011;5877;50.930;6.918;2022-10-30T04:28:35;8.63;;;5.77;;
11642;SDS011;5877;50.930;6.918;2022-10-30T04:31:02;11.23;;;6.20;;
11642;SDS011;5877;50.930;6.918;2022-10-30T04:33:29;13.00;;;6.97;;
11642;SDS011;5877;50.930;6.918;2022-10-30T04:35:57;10.37;;;6.63;;
11642;SDS011;5877;50.930;6.918;2022-10-30T04:38:24;10.17;;;6.43;;
11642;SDS011;5877;50.930;6.918;2022-10-30T04:40:51;13.20;;;7.23;;
11642;SDS011;5877;50.930;6.918;2022-10-30T04:43:18;8.57;;;6.40;;
11642;SDS011;5877;50.930;6.918;2022-10-30T04:45:48;12.47;;;5.77;;
11642;SDS011;5877;50.930;6.918;2022-10-30T04:48:15;18.13;;;7.13;;
11642;SDS011;5877;50.930;6.918;2022-10-30T04:50:45;8.97;;;6.00;;
11642;SDS011;5877;50.930;6.918;2022-10-30T04:53:19;10.23;;;5.97;;
11642;SDS011;5877;50.930;6.918;2022-10-30T04:55:53;13.10;;;5.83;;
11642;SDS011;5877;50.930;6.918;2022-10-30T04:58:20;11.67;;;6.17;;
11642;SDS011;5877;50.930;6.918;2022-10-30T05:00:53;10.43;;;6.40;;
11642;SDS011;5877;50.930;6.918;2022-10-30T05:03:28;11.00;;;6.27;;
11642;SDS011;5877;50.930;6.918;2022-10-30T05:05:57;13.77;;;7.17;;
11642;SDS011;5877;50.930;6.918;2022-10-30T05:08:24;12.20;;;6.63;;
11642;SDS011;5877;50.930;6.918;2022-10-30T05:10:52;13.60;;;6.37;;
11642;SDS011;5877;50.930;6.918;2022-10-30T05:13:20;9.93;;;6.43;;
11642;SDS011;5877;50.930;6.918;2022-10-30T05:15:46;14.43;;;6.63;;
11642;SDS011;5877;50.930;6.918;2022-10-30T05:18:13;11.20;;;6.17;;
11642;SDS011;5877;50.930;6.918;2022-10-30T05:20:40;10.23;;;5.57;;
11642;SDS011;5877;50.930;6.918;2022-10-30T05:23:08;9.07;;;6.13;;
11642;SDS011;5877;50.930;6.918;2022-10-30T05:25:35;12.17;;;6.23;;
11642;SDS011;5877;50.930;6.918;2022-10-30T05:28:04;11.87;;;5.93;;
11642;SDS011;5877;50.930;6.918;2022-10-30T05:30:39;14.43;;;5.63;;
11642;SDS011;5877;50.930;6.918;2022-10-30T05:33:16;13.50;;;5.93;;
11642;SDS011;5877;50.930;6.918;2022-10-30T05:35:43;11.63;;;6.07;;
11642;SDS011;5877;50.930;6.918;2022-10-30T05:38:10;12.03;;;5.30;;
11642;SDS011;5877;50.930;6.918;2022-10-30T05:40:37;10.60;;;6.10;;
11642;SDS011;5877;50.930;6.918;2022-10-30T05:43:04;16.27;;;6.43;;
11642;SDS011;5877;50.930;6.918;2022-10-30T05:45:32;12.10;;;5.67;;
11642;SDS011;5877;50.930;6.918;2022-10-30T05:48:02;12.80;;;6.37;;
11642;SDS011;5877;50.930;6.918;2022-10-30T05:50:37;11.10;;;5.17;;
11642;SDS011;5877;50.930;6.918;2022-10-30T05:53:30;13.83;;;5.90;;
11642;SDS011;5877;50.930;6.918;2022-10-30T05:55:58;12.93;;;6.10;;
11642;SDS011;5877;50.930;6.918;2022-10-30T05:58:29;10.60;;;5.70;;
11642;SDS011;5877;50.930;6.918;2022-10-30T06:00:59;10.07;;;5.43;;
11642;SDS011;5877;50.930;6.918;2022-10-30T06:03:41;11.93;;;5.43;;
11642;SDS011;5877;50.930;6.918;2022-10-30T06:06:09;11.63;;;6.10;;
11642;SDS011;5877;50.930;6.918;2022-10-30T06:08:36;10.77;;;5.90;;
11642;SDS011;5877;50.930;6.918;2022-10-30T06:11:35;10.13;;;5.83;;
11642;SDS011;5877;50.930;6.918;2022-10-30T06:14:03;19.37;;;6.47;;
11642;SDS011;5877;50.930;6.918;2022-10-30T06:16:39;11.77;;;5.90;;
11642;SDS011;5877;50.930;6.918;2022-10-30T06:19:23;11.43;;;5.90;;
11642;SDS011;5877;50.930;6.918;2022-10-30T06:21:51;9.70;;;5.43;;
11642;SDS011;5877;50.930;6.918;2022-10-30T06:24:26;14.00;;;6.30;;
11642;SDS011;5877;50.930;6.918;2022-10-30T06:29:18;13.43;;;5.80;;
11642;SDS011;5877;50.930;6.918;2022-10-30T06:31:45;12.07;;;5.97;;
11642;SDS011;5877;50.930;6.918;2022-10-30T06:34:12;9.10;;;5.60;;
11642;SDS011;5877;50.930;6.918;2022-10-30T06:36:40;15.23;;;6.33;;
11642;SDS011;5877;50.930;6.918;2022-10-30T06:39:07;11.47;;;5.60;;
11642;SDS011;5877;50.930;6.918;2022-10-30T06:41:41;13.70;;;6.53;;
11642;SDS011;5877;50.930;6.918;2022-10-30T06:44:26;10.60;;;6.20;;
11642;SDS011;5877;50.930;6.918;2022-10-30T06:46:52;11.67;;;5.53;;
11642;SDS011;5877;50.930;6.918;2022-10-30T06:49:19;10.63;;;5.83;;
11642;SDS011;5877;50.930;6.918;2022-10-30T06:51:47;11.20;;;5.73;;
11642;SDS011;5877;50.930;6.918;2022-10-30T06:54:15;12.80;;;6.77;;
11642;SDS011;5877;50.930;6.918;2022-10-30T06:56:57;10.87;;;5.50;;
11642;SDS011;5877;50.930;6.918;2022-10-30T06:59:43;10.83;;;5.67;;
11642;SDS011;5877;50.930;6.918;2022-10-30T07:02:28;10.77;;;6.20;;
11642;SDS011;5877;50.930;6.918;2022-10-30T07:05:00;10.83;;;6.10;;
11642;SDS011;5877;50.930;6.918;2022-10-30T07:07:27;11.90;;;5.73;;
11642;SDS011;5877;50.930;6.918;2022-10-30T07:09:54;12.40;;;6.67;;
11642;SDS011;5877;50.930;6.918;2022-10-30T07:12:36;15.83;;;6.40;;
11642;SDS011;5877;50.930;6.918;2022-10-30T07:15:18;12.07;;;5.57;;
11642;SDS011;5877;50.930;6.918;2022-10-30T07:18:03;13.20;;;5.50;;
11642;SDS011;5877;50.930;6.918;2022-10-30T07:20:34;13.07;;;6.27;;
11642;SDS011;5877;50.930;6.918;2022-10-30T07:23:02;10.10;;;5.37;;
11642;SDS011;5877;50.930;6.918;2022-10-30T07:25:29;8.70;;;5.67;;
11642;SDS011;5877;50.930;6.918;2022-10-30T07:28:05;13.73;;;5.60;;
11642;SDS011;5877;50.930;6.918;2022-10-30T07:30:40;10.77;;;5.60;;
11642;SDS011;5877;50.930;6.918;2022-10-30T07:33:16;8.40;;;5.50;;
11642;SDS011;5877;50.930;6.918;2022-10-30T07:36:12;14.20;;;5.83;;
11642;SDS011;5877;50.930;6.918;2022-10-30T07:38:46;15.93;;;5.57;;
11642;SDS011;5877;50.930;6.918;2022-10-30T07:41:32;10.60;;;5.50;;
11642;SDS011;5877;50.930;6.918;2022-10-30T07:44:37;10.93;;;5.20;;
11642;SDS011;5877;50.930;6.918;2022-10-30T07:47:28;14.33;;;5.07;;
11642;SDS011;5877;50.930;6.918;2022-10-30T07:50:01;11.50;;;5.10;;
11642;SDS011;5877;50.930;6.918;2022-10-30T07:52:31;13.87;;;6.20;;
11642;SDS011;5877;50.930;6.918;2022-10-30T07:54:58;10.47;;;5.23;;
11642;SDS011;5877;50.930;6.918;2022-10-30T07:57:45;9.67;;;5.30;;
11642;SDS011;5877;50.930;6.918;2022-10-30T08:00:30;10.83;;;5.40;;
11642;SDS011;5877;50.930;6.918;2022-10-30T08:03:06;12.50;;;5.23;;
11642;SDS011;5877;50.930;6.918;2022-10-30T08:05:54;10.47;;;5.37;;
11642;SDS011;5877;50.930;6.918;2022-10-30T08:08:27;14.33;;;5.17;;
11642;SDS011;5877;50.930;6.918;2022-10-30T08:11:06;13.40;;;5.63;;
11642;SDS011;5877;50.930;6.918;2022-10-30T08:13:33;10.63;;;5.40;;
11642;SDS011;5877;50.930;6.918;2022-10-30T08:15:59;14.43;;;5.60;;
11642;SDS011;5877;50.930;6.918;2022-10-30T08:18:26;12.50;;;5.33;;
11642;SDS011;5877;50.930;6.918;2022-10-30T08:20:53;11.60;;;5.23;;
11642;SDS011;5877;50.930;6.918;2022-10-30T08:23:20;9.90;;;4.83;;
11642;SDS011;5877;50.930;6.918;2022-10-30T08:25:47;10.33;;;5.03;;
11642;SDS011;5877;50.930;6.918;2022-10-30T08:28:14;8.23;;;4.70;;
11642;SDS011;5877;50.930;6.918;2022-10-30T08:30:42;12.47;;;5.07;;
11642;SDS011;5877;50.930;6.918;2022-10-30T08:33:13;11.30;;;5.30;;
11642;SDS011;5877;50.930;6.918;2022-10-30T08:35:55;12.13;;;5.40;;
11642;SDS011;5877;50.930;6.918;2022-10-30T08:38:25;14.90;;;5.50;;
11642;SDS011;5877;50.930;6.918;2022-10-30T08:41:08;10.57;;;5.47;;
11642;SDS011;5877;50.930;6.918;2022-10-30T08:43:42;14.37;;;6.40;;
11642;SDS011;5877;50.930;6.918;2022-10-30T08:46:09;10.77;;;5.07;;
11642;SDS011;5877;50.930;6.918;2022-10-30T08:48:35;15.43;;;5.60;;
11642;SDS011;5877;50.930;6.918;2022-10-30T08:51:02;12.33;;;5.23;;
11642;SDS011;5877;50.930;6.918;2022-10-30T08:53:35;13.73;;;5.50;;
11642;SDS011;5877;50.930;6.918;2022-10-30T08:56:07;14.00;;;5.27;;
11642;SDS011;5877;50.930;6.918;2022-10-30T08:58:48;10.97;;;5.23;;
11642;SDS011;5877;50.930;6.918;2022-10-30T09:01:16;11.40;;;5.20;;
11642;SDS011;5877;50.930;6.918;2022-10-30T09:04:02;9.83;;;5.50;;
11642;SDS011;5877;50.930;6.918;2022-10-30T09:06:48;10.10;;;5.23;;
11642;SDS011;5877;50.930;6.918;2022-10-30T09:09:43;10.20;;;5.67;;
11642;SDS011;5877;50.930;6.918;2022-10-30T09:12:10;11.73;;;5.20;;
11642;SDS011;5877;50.930;6.918;2022-10-30T09:14:40;9.53;;;5.40;;
11642;SDS011;5877;50.930;6.918;2022-10-30T09:17:09;10.77;;;5.23;;
11642;SDS011;5877;50.930;6.918;2022-10-30T09:19:37;13.73;;;5.70;;
11642;SDS011;5877;50.930;6.918;2022-10-30T09:22:04;13.13;;;5.47;;
11642;SDS011;5877;50.930;6.918;2022-10-30T09:24:36;13.83;;;5.20;;
11642;SDS011;5877;50.930;6.918;2022-10-30T09:27:27;9.50;;;5.50;;
11642;SDS011;5877;50.930;6.918;2022-10-30T09:29:55;13.67;;;5.57;;
11642;SDS011;5877;50.930;6.918;2022-10-30T09:32:27;10.80;;;5.17;;
11642;SDS011;5877;50.930;6.918;2022-10-30T09:35:07;12.23;;;5.77;;
11642;SDS011;5877;50.930;6.918;2022-10-30T09:37:36;11.73;;;5.30;;
11642;SDS011;5877;50.930;6.918;2022-10-30T09:40:18;9.70;;;5.40;;
11642;SDS011;5877;50.930;6.918;2022-10-30T09:42:48;11.40;;;5.57;;
11642;SDS011;5877;50.930;6.918;2022-10-30T09:45:27;9.13;;;5.20;;
11642;SDS011;5877;50.930;6.918;2022-10-30T09:48:14;12.60;;;5.57;;
11642;SDS011;5877;50.930;6.918;2022-10-30T09:51:08;8.23;;;5.00;;
11642;SDS011;5877;50.930;6.918;2022-10-30T09:59:20;8.90;;;5.00;;
11642;SDS011;5877;50.930;6.918;2022-10-30T10:01:58;10.17;;;5.00;;
11642;SDS011;5877;50.930;6.918;2022-10-30T10:04:33;9.13;;;5.50;;
11642;SDS011;5877;50.930;6.918;2022-10-30T10:07:30;11.03;;;5.07;;
11642;SDS011;5877;50.930;6.918;2022-10-30T10:10:42;11.87;;;5.23;;
11642;SDS011;5877;50.930;6.918;2022-10-30T10:13:20;10.53;;;5.37;;
11642;SDS011;5877;50.930;6.918;2022-10-30T10:16:35;10.83;;;5.57;;
11642;SDS011;5877;50.930;6.918;2022-10-30T10:21:42;15.23;;;5.17;;
11642;SDS011;5877;50.930;6.918;2022-10-30T10:24:18;11.33;;;4.90;;
11642;SDS011;5877;50.930;6.918;2022-10-30T10:26:48;9.50;;;4.97;;
11642;SDS011;5877;50.930;6.918;2022-10-30T10:29:33;8.80;;;4.97;;
11642;SDS011;5877;50.930;6.918;2022-10-30T10:34:51;9.80;;;4.97;;
11642;SDS011;5877;50.930;6.918;2022-10-30T10:37:34;9.23;;;4.80;;
11642;SDS011;5877;50.930;6.918;2022-10-30T10:49:01;6.47;;;4.17;;
11642;SDS011;5877;50.930;6.918;2022-10-30T10:51:41;8.77;;;4.03;;
11642;SDS011;5877;50.930;6.918;2022-10-30T10:54:12;10.57;;;4.43;;
11642;SDS011;5877;50.930;6.918;2022-10-30T10:56:44;14.13;;;5.03;;
11642;SDS011;5877;50.930;6.918;2022-10-30T11:08:14;8.13;;;4.97;;
11642;SDS011;5877;50.930;6.918;2022-10-30T11:10:46;12.77;;;4.67;;
11642;SDS011;5877;50.930;6.918;2022-10-30T11:13:16;9.83;;;4.77;;
11642;SDS011;5877;50.930;6.918;2022-10-30T11:15:53;13.70;;;4.80;;
11642;SDS011;5877;50.930;6.918;2022-10-30T11:18:29;10.13;;;4.53;;
11642;SDS011;5877;50.930;6.918;2022-10-30T11:20:59;15.57;;;4.53;;
11642;SDS011;5877;50.930;6.918;2022-10-30T11:23:33;11.10;;;4.93;;
11642;SDS011;5877;50.930;6.918;2022-10-30T11:26:01;11.00;;;4.50;;
11642;SDS011;5877;50.930;6.918;2022-10-30T11:29:12;16.87;;;4.90;;
11642;SDS011;5877;50.930;6.918;2022-10-30T11:31:29;10.63;;;5.00;;
11642;SDS011;5877;50.930;6.918;2022-10-30T11:36:45;9.03;;;4.53;;
11642;SDS011;5877;50.930;6.918;2022-10-30T11:39:32;11.07;;;4.67;;
11642;SDS011;5877;50.930;6.918;2022-10-30T11:44:41;13.50;;;4.90;;
11642;SDS011;5877;50.930;6.918;2022-10-30T11:47:10;8.30;;;4.40;;
11642;SDS011;5877;50.930;6.918;2022-10-30T11:52:22;8.70;;;4.07;;
11642;SDS011;5877;50.930;6.918;2022-10-30T11:54:55;12.47;;;4.50;;
11642;SDS011;5877;50.930;6.918;2022-10-30T12:00:23;10.20;;;4.27;;
11642;SDS011;5877;50.930;6.918;2022-10-30T12:02:53;8.23;;;4.43;;
11642;SDS011;5877;50.930;6.918;2022-10-30T12:13:18;9.63;;;4.03;;
11642;SDS011;5877;50.930;6.918;2022-10-30T12:15:48;10.20;;;4.33;;
11642;SDS011;5877;50.930;6.918;2022-10-30T12:18:28;11.97;;;4.40;;
11642;SDS011;5877;50.930;6.918;2022-10-30T12:20:55;9.07;;;3.97;;
11642;SDS011;5877;50.930;6.918;2022-10-30T12:23:24;9.73;;;4.13;;
11642;SDS011;5877;50.930;6.918;2022-10-30T12:26:14;15.20;;;4.27;;
11642;SDS011;5877;50.930;6.918;2022-10-30T12:28:40;12.20;;;4.50;;
11642;SDS011;5877;50.930;6.918;2022-10-30T12:31:19;7.70;;;3.67;;
11642;SDS011;5877;50.930;6.918;2022-10-30T12:34:10;8.70;;;3.87;;
11642;SDS011;5877;50.930;6.918;2022-10-30T12:42:44;10.27;;;3.97;;
11642;SDS011;5877;50.930;6.918;2022-10-30T12:45:20;12.57;;;4.33;;
11642;SDS011;5877;50.930;6.918;2022-10-30T12:47:54;9.67;;;4.00;;
11642;SDS011;5877;50.930;6.918;2022-10-30T12:50:36;13.07;;;4.70;;
11642;SDS011;5877;50.930;6.918;2022-10-30T12:53:15;10.50;;;4.30;;
11642;SDS011;5877;50.930;6.918;2022-10-30T12:55:48;10.57;;;4.27;;
11642;SDS011;5877;50.930;6.918;2022-10-30T13:01:10;6.90;;;4.13;;
11642;SDS011;5877;50.930;6.918;2022-10-30T13:03:54;13.13;;;4.00;;
11642;SDS011;5877;50.930;6.918;2022-10-30T13:06:27;9.27;;;3.93;;
11642;SDS011;5877;50.930;6.918;2022-10-30T13:09:12;12.60;;;3.83;;
11642;SDS011;5877;50.930;6.918;2022-10-30T13:11:47;8.23;;;3.70;;
11642;SDS011;5877;50.930;6.918;2022-10-30T13:14:21;8.10;;;3.90;;
11642;SDS011;5877;50.930;6.918;2022-10-30T13:16:57;10.17;;;4.03;;
11642;SDS011;5877;50.930;6.918;2022-10-30T13:19:24;11.47;;;3.70;;
11642;SDS011;5877;50.930;6.918;2022-10-30T13:22:03;9.27;;;3.67;;
11642;SDS011;5877;50.930;6.918;2022-10-30T13:40:55;10.00;;;3.90;;
11642;SDS011;5877;50.930;6.918;2022-10-30T13:46:33;8.87;;;3.77;;
11642;SDS011;5877;50.930;6.918;2022-10-30T13:51:55;8.97;;;3.17;;
11642;SDS011;5877;50.930;6.918;2022-10-30T13:54:37;10.63;;;3.40;;
11642;SDS011;5877;50.930;6.918;2022-10-30T13:57:19;8.20;;;3.47;;
11642;SDS011;5877;50.930;6.918;2022-10-30T14:00:49;11.37;;;3.50;;
11642;SDS011;5877;50.930;6.918;2022-10-30T14:06:08;9.77;;;3.77;;
11642;SDS011;5877;50.930;6.918;2022-10-30T14:11:43;8.43;;;3.90;;
11642;SDS011;5877;50.930;6.918;2022-10-30T14:17:08;9.00;;;4.53;;
11642;SDS011;5877;50.930;6.918;2022-10-30T14:22:39;10.43;;;4.17;;
11642;SDS011;5877;50.930;6.918;2022-10-30T14:25:15;11.17;;;3.97;;
11642;SDS011;5877;50.930;6.918;2022-10-30T14:27:41;8.67;;;3.97;;
11642;SDS011;5877;50.930;6.918;2022-10-30T14:30:16;7.97;;;3.53;;
11642;SDS011;5877;50.930;6.918;2022-10-30T14:32:48;7.47;;;3.73;;
11642;SDS011;5877;50.930;6.918;2022-10-30T14:35:51;8.77;;;4.27;;
11642;SDS011;5877;50.930;6.918;2022-10-30T14:40:39;6.37;;;3.77;;
11642;SDS011;5877;50.930;6.918;2022-10-30T14:45:54;8.70;;;3.60;;
11642;SDS011;5877;50.930;6.918;2022-10-30T14:48:34;7.80;;;3.90;;
11642;SDS011;5877;50.930;6.918;2022-10-30T14:51:33;9.97;;;3.80;;
11642;SDS011;5877;50.930;6.918;2022-10-30T14:54:25;10.50;;;3.70;;
11642;SDS011;5877;50.930;6.918;2022-10-30T14:57:02;10.33;;;3.30;;
11642;SDS011;5877;50.930;6.918;2022-10-30T14:59:30;9.07;;;3.80;;
11642;SDS011;5877;50.930;6.918;2022-10-30T15:02:01;8.70;;;3.93;;
11642;SDS011;5877;50.930;6.918;2022-10-30T15:07:21;9.13;;;3.90;;
11642;SDS011;5877;50.930;6.918;2022-10-30T15:12:54;9.13;;;3.43;;
11642;SDS011;5877;50.930;6.918;2022-10-30T15:15:31;7.33;;;3.50;;
11642;SDS011;5877;50.930;6.918;2022-10-30T15:17:58;7.30;;;4.10;;
11642;SDS011;5877;50.930;6.918;2022-10-30T15:20:30;7.20;;;4.03;;
11642;SDS011;5877;50.930;6.918;2022-10-30T15:23:00;6.53;;;3.70;;
11642;SDS011;5877;50.930;6.918;2022-10-30T15:25:48;11.53;;;4.33;;
11642;SDS011;5877;50.930;6.918;2022-10-30T15:28:19;6.20;;;4.13;;
11642;SDS011;5877;50.930;6.918;2022-10-30T15:31:00;6.93;;;3.80;;
11642;SDS011;5877;50.930;6.918;2022-10-30T15:33:28;7.77;;;3.63;;
11642;SDS011;5877;50.930;6.918;2022-10-30T15:35:58;7.93;;;4.13;;
11642;SDS011;5877;50.930;6.918;2022-10-30T15:38:25;9.00;;;3.53;;
11642;SDS011;5877;50.930;6.918;2022-10-30T15:40:54;6.00;;;2.93;;
11642;SDS011;5877;50.930;6.918;2022-10-30T15:43:30;6.13;;;3.30;;
11642;SDS011;5877;50.930;6.918;2022-10-30T15:45:59;9.37;;;3.30;;
11642;SDS011;5877;50.930;6.918;2022-10-30T15:48:27;7.57;;;3.27;;
11642;SDS011;5877;50.930;6.918;2022-10-30T15:53:39;8.10;;;3.37;;
11642;SDS011;5877;50.930;6.918;2022-10-30T15:59:23;5.33;;;3.23;;
11642;SDS011;5877;50.930;6.918;2022-10-30T16:01:53;8.77;;;3.37;;
11642;SDS011;5877;50.930;6.918;2022-10-30T16:04:22;8.13;;;3.53;;
11642;SDS011;5877;50.930;6.918;2022-10-30T16:06:58;5.27;;;2.77;;
11642;SDS011;5877;50.930;6.918;2022-10-30T16:09:26;6.97;;;3.37;;
11642;SDS011;5877;50.930;6.918;2022-10-30T16:11:54;6.40;;;3.27;;
11642;SDS011;5877;50.930;6.918;2022-10-30T16:14:24;5.30;;;2.80;;
11642;SDS011;5877;50.930;6.918;2022-10-30T16:16:58;8.57;;;3.37;;
11642;SDS011;5877;50.930;6.918;2022-10-30T16:19:29;7.27;;;3.97;;
11642;SDS011;5877;50.930;6.918;2022-10-30T16:21:58;5.80;;;3.50;;
11642;SDS011;5877;50.930;6.918;2022-10-30T16:24:32;5.93;;;3.17;;
11642;SDS011;5877;50.930;6.918;2022-10-30T16:27:01;7.67;;;3.33;;
11642;SDS011;5877;50.930;6.918;2022-10-30T16:29:28;7.27;;;3.10;;
11642;SDS011;5877;50.930;6.918;2022-10-30T16:31:55;7.83;;;3.80;;
11642;SDS011;5877;50.930;6.918;2022-10-30T16:34:41;7.83;;;3.33;;
11642;SDS011;5877;50.930;6.918;2022-10-30T16:40:15;8.47;;;3.60;;
11642;SDS011;5877;50.930;6.918;2022-10-30T16:42:45;7.30;;;3.57;;
11642;SDS011;5877;50.930;6.918;2022-10-30T16:47:43;10.13;;;4.30;;
11642;SDS011;5877;50.930;6.918;2022-10-30T16:50:14;7.77;;;3.67;;
11642;SDS011;5877;50.930;6.918;2022-10-30T16:52:42;13.23;;;4.70;;
11642;SDS011;5877;50.930;6.918;2022-10-30T16:55:19;7.97;;;4.73;;
11642;SDS011;5877;50.930;6.918;2022-10-30T16:57:52;7.90;;;4.40;;
11642;SDS011;5877;50.930;6.918;2022-10-30T17:00:21;9.83;;;4.80;;
11642;SDS011;5877;50.930;6.918;2022-10-30T17:02:53;10.00;;;4.60;;
11642;SDS011;5877;50.930;6.918;2022-10-30T17:05:23;8.40;;;4.13;;
11642;SDS011;5877;50.930;6.918;2022-10-30T17:07:58;10.57;;;4.37;;
11642;SDS011;5877;50.930;6.918;2022-10-30T17:10:33;8.93;;;4.10;;
11642;SDS011;5877;50.930;6.918;2022-10-30T17:16:20;7.33;;;4.20;;
11642;SDS011;5877;50.930;6.918;2022-10-30T17:18:56;6.37;;;4.13;;
11642;SDS011;5877;50.930;6.918;2022-10-30T17:21:36;9.43;;;5.03;;
11642;SDS011;5877;50.930;6.918;2022-10-30T17:24:22;8.40;;;4.53;;
11642;SDS011;5877;50.930;6.918;2022-10-30T17:26:54;10.57;;;4.70;;
11642;SDS011;5877;50.930;6.918;2022-10-30T17:34:51;13.33;;;5.13;;
11642;SDS011;5877;50.930;6.918;2022-10-30T17:37:26;7.63;;;3.97;;
11642;SDS011;5877;50.930;6.918;2022-10-30T17:39:53;11.43;;;6.27;;
11642;SDS011;5877;50.930;6.918;2022-10-30T17:42:20;10.00;;;5.03;;
11642;SDS011;5877;50.930;6.918;2022-10-30T17:44:46;9.00;;;4.70;;
11642;SDS011;5877;50.930;6.918;2022-10-30T17:47:14;10.27;;;5.90;;
11642;SDS011;5877;50.930;6.918;2022-10-30T17:49:43;9.10;;;4.63;;
11642;SDS011;5877;50.930;6.918;2022-10-30T17:52:13;12.50;;;4.90;;
11642;SDS011;5877;50.930;6.918;2022-10-30T17:54:42;9.23;;;4.90;;
11642;SDS011;5877;50.930;6.918;2022-10-30T17:57:09;8.30;;;5.10;;
11642;SDS011;5877;50.930;6.918;2022-10-30T17:59:37;11.10;;;5.23;;